Time;durP1;ratioP1;P1;durP2;ratioP2;P2;SDS_P1;SDS_P2;PMS_P1;PMS_P2;Temp;Humidity;BMP_temperature;BMP_pressure;BME280_temperature;BME280_humidity;BME280_pressure;Samples;Min_cycle;Max_cycle;Signal;HPM_P1;HPM_P2
2023/04/10 00:01:53;;;;;;;51.80;26.08;;;;;;;;;;6245036;23;20458;-91
2023/04/10 00:04:22;;;;;;;57.03;25.90;;;;;;;;;;6192154;23;20106;-90
2023/04/10 00:06:49;;;;;;;55.60;25.55;;;;;;;;;;6216865;23;20375;-91
2023/04/10 00:09:16;;;;;;;50.55;25.38;;;;;;;;;;6193347;23;20017;-91
2023/04/10 00:11:43;;;;;;;50.88;25.45;;;;;;;;;;6193754;23;20005;-91
2023/04/10 00:14:10;;;;;;;56.42;25.17;;;;;;;;;;6192208;23;20044;-91
2023/04/10 00:16:37;;;;;;;57.88;26.30;;;;;;;;;;6192636;23;20067;-90
2023/04/10 00:19:28;;;;;;;55.03;26.60;;;;;;;;;;6195105;23;20024;-90
2023/04/10 00:21:55;;;;;;;51.90;25.70;;;;;;;;;;6195902;23;20071;-91
2023/04/10 00:24:22;;;;;;;60.38;26.95;;;;;;;;;;6190169;23;20013;-91
2023/04/10 00:26:58;;;;;;;62.22;26.80;;;;;;;;;;6219679;23;20012;-91
2023/04/10 00:29:27;;;;;;;59.25;26.45;;;;;;;;;;6197818;23;20064;-91
2023/04/10 00:31:55;;;;;;;60.38;27.58;;;;;;;;;;6217551;23;20064;-92
2023/04/10 00:34:22;;;;;;;56.05;27.15;;;;;;;;;;6193027;23;20024;-92
2023/04/10 00:36:49;;;;;;;58.13;27.90;;;;;;;;;;6192829;23;20024;-92
2023/04/10 00:39:15;;;;;;;60.72;27.50;;;;;;;;;;6195017;23;20358;-92
2023/04/10 00:41:49;;;;;;;63.60;28.95;;;;;;;;;;6195412;23;20023;-92
2023/04/10 00:44:16;;;;;;;61.05;29.10;;;;;;;;;;6219338;23;20013;-91
2023/04/10 00:46:43;;;;;;;58.88;29.10;;;;;;;;;;6214485;23;20040;-91
2023/04/10 00:49:10;;;;;;;59.28;27.63;;;;;;;;;;6190137;23;20395;-92
2023/04/10 00:51:46;;;;;;;63.73;27.77;;;;;;;;;;6217370;23;20011;-92
2023/04/10 00:54:14;;;;;;;57.75;28.65;;;;;;;;;;6219600;23;20424;-92
2023/04/10 00:56:45;;;;;;;60.10;28.70;;;;;;;;;;6190603;23;20013;-92
2023/04/10 00:59:12;;;;;;;66.88;30.65;;;;;;;;;;6195244;23;20040;-92
2023/04/10 01:01:41;;;;;;;61.42;29.80;;;;;;;;;;6196562;23;20019;-92
2023/04/10 01:04:09;;;;;;;62.55;31.00;;;;;;;;;;6222231;23;20382;-92
2023/04/10 01:06:55;;;;;;;66.00;30.55;;;;;;;;;;6218293;23;20043;-92
2023/04/10 01:09:22;;;;;;;;;;;;;;;;;;6219892;23;20201;-92
2023/04/10 01:11:55;;;;;;;65.95;29.20;;;;;;;;;;6217344;23;19908;-92
2023/04/10 01:14:35;;;;;;;80.45;33.28;;;;;;;;;;6219882;23;20032;-92
2023/04/10 01:17:08;;;;;;;69.65;31.45;;;;;;;;;;6219802;23;20020;-92
2023/04/10 01:19:59;;;;;;;70.97;32.90;;;;;;;;;;6220566;22;20024;-92
2023/04/10 01:22:29;;;;;;;79.47;33.13;;;;;;;;;;6195900;23;20016;-92
2023/04/10 01:24:57;;;;;;;68.93;32.60;;;;;;;;;;6223141;23;20067;-91
2023/04/10 01:27:42;;;;;;;73.20;33.10;;;;;;;;;;6217355;23;20335;-92
2023/04/10 01:30:12;;;;;;;72.60;33.92;;;;;;;;;;6217556;23;20004;-91
2023/04/10 01:32:42;;;;;;;79.43;35.53;;;;;;;;;;6222070;23;20241;-91
2023/04/10 01:35:09;;;;;;;68.05;32.50;;;;;;;;;;6221767;23;20267;-93
2023/04/10 01:37:42;;;;;;;72.43;33.92;;;;;;;;;;6192698;23;20013;-93
2023/04/10 01:40:11;;;;;;;76.07;33.33;;;;;;;;;;6222697;23;20028;-92
2023/04/10 01:42:40;;;;;;;82.47;36.45;;;;;;;;;;6221064;23;20478;-92
2023/04/10 01:45:09;;;;;;;79.78;35.50;;;;;;;;;;6217324;23;20008;-92
2023/04/10 01:47:36;;;;;;;79.57;35.00;;;;;;;;;;6195114;23;20048;-93
2023/04/10 01:50:04;;;;;;;77.20;36.63;;;;;;;;;;6193030;23;20044;-92
2023/04/10 01:52:32;;;;;;;71.30;35.67;;;;;;;;;;6216947;23;20217;-93
2023/04/10 01:54:59;;;;;;;84.82;37.72;;;;;;;;;;6190494;23;20051;-93
2023/04/10 01:57:25;;;;;;;76.00;35.60;;;;;;;;;;6217307;23;20051;-93
2023/04/10 01:59:54;;;;;;;77.10;37.10;;;;;;;;;;6194665;23;20375;-91
2023/04/10 02:02:21;;;;;;;81.40;38.40;;;;;;;;;;6217664;23;20319;-90
2023/04/10 02:04:50;;;;;;;81.05;36.80;;;;;;;;;;6191547;23;20008;-90
2023/04/10 02:07:22;;;;;;;74.93;35.75;;;;;;;;;;6191160;23;20548;-91
2023/04/10 02:09:51;;;;;;;77.88;36.15;;;;;;;;;;6215398;23;20049;-90
2023/04/10 02:12:27;;;;;;;84.35;36.40;;;;;;;;;;6216300;23;20011;-91
2023/04/10 02:14:55;;;;;;;77.93;36.58;;;;;;;;;;6189172;23;20088;-92
2023/04/10 02:17:23;;;;;;;83.15;37.97;;;;;;;;;;6212853;23;20023;-93
2023/04/10 02:19:50;;;;;;;85.95;36.83;;;;;;;;;;6214640;22;20579;-92
2023/04/10 02:22:24;;;;;;;78.93;37.50;;;;;;;;;;6189685;23;20120;-93
2023/04/10 02:24:52;;;;;;;79.90;38.92;;;;;;;;;;6215984;23;20451;-93
2023/04/10 02:27:31;;;;;;;77.57;35.80;;;;;;;;;;6190070;23;20068;-93
2023/04/10 02:29:58;;;;;;;80.00;37.00;;;;;;;;;;6215981;23;20015;-93
2023/04/10 02:32:25;;;;;;;80.25;36.58;;;;;;;;;;6190900;23;20059;-91
2023/04/10 02:35:01;;;;;;;72.40;35.05;;;;;;;;;;6217035;23;20008;-91
2023/04/10 02:37:34;;;;;;;68.57;33.33;;;;;;;;;;6221298;23;20013;-93
2023/04/10 02:40:01;;;;;;;72.63;35.15;;;;;;;;;;6222210;23;20012;-93
2023/04/10 02:42:30;;;;;;;76.28;34.97;;;;;;;;;;6194797;23;20008;-93
2023/04/10 02:44:58;;;;;;;74.57;35.78;;;;;;;;;;6196884;23;20314;-91
2023/04/10 02:47:25;;;;;;;77.95;35.65;;;;;;;;;;6197007;23;20195;-91
2023/04/10 02:49:52;;;;;;;73.53;34.83;;;;;;;;;;6198327;23;20009;-92
2023/04/10 02:52:42;;;;;;;80.32;35.58;;;;;;;;;;6195690;23;20064;-92
2023/04/10 02:55:12;;;;;;;71.90;33.63;;;;;;;;;;6226049;23;20035;-91
2023/04/10 02:57:41;;;;;;;77.07;33.83;;;;;;;;;;6194310;23;20051;-91
2023/04/10 03:00:09;;;;;;;76.13;35.38;;;;;;;;;;6194754;23;20074;-91
2023/04/10 03:02:35;;;;;;;74.63;34.85;;;;;;;;;;6217498;23;20039;-91
2023/04/10 03:05:01;;;;;;;70.10;33.30;;;;;;;;;;6193748;23;20116;-90
2023/04/10 03:07:31;;;;;;;76.07;34.05;;;;;;;;;;6193524;23;20059;-90
2023/04/10 03:09:57;;;;;;;71.10;33.70;;;;;;;;;;6194555;23;20008;-90
2023/04/10 03:12:24;;;;;;;70.03;33.42;;;;;;;;;;6191761;23;20005;-90
2023/04/10 03:14:50;;;;;;;75.80;35.00;;;;;;;;;;6191011;23;20036;-90
2023/04/10 03:17:16;;;;;;;73.10;33.65;;;;;;;;;;6190091;23;20012;-88
2023/04/10 03:20:02;;;;;;;74.18;32.08;;;;;;;;;;6198177;23;20036;-89
2023/04/10 03:22:31;;;;;;;67.18;32.00;;;;;;;;;;6217864;23;20036;-89
2023/04/10 03:24:57;;;;;;;71.13;32.13;;;;;;;;;;6215606;23;20426;-91
2023/04/10 03:27:23;;;;;;;71.45;33.35;;;;;;;;;;6192529;23;20035;-91
2023/04/10 03:29:50;;;;;;;75.55;31.00;;;;;;;;;;6219763;23;20005;-90
2023/04/10 03:32:16;;;;;;;63.58;29.63;;;;;;;;;;6192461;23;20095;-92
2023/04/10 03:34:48;;;;;;;76.32;32.75;;;;;;;;;;6215606;23;20009;-92
2023/04/10 03:37:16;;;;;;;69.10;31.85;;;;;;;;;;6192915;23;20009;-92
2023/04/10 03:39:42;;;;;;;71.38;33.47;;;;;;;;;;6190556;23;20076;-91
2023/04/10 03:42:08;;;;;;;70.68;32.90;;;;;;;;;;6189311;23;20016;-91
2023/04/10 03:44:35;;;;;;;70.50;33.75;;;;;;;;;;6191452;23;20096;-91
2023/04/10 03:47:02;;;;;;;74.68;33.75;;;;;;;;;;6190869;23;20068;-91
2023/04/10 03:49:28;;;;;;;72.50;34.33;;;;;;;;;;6191277;23;20091;-91
2023/04/10 03:51:54;;;;;;;73.63;32.75;;;;;;;;;;6215381;23;20095;-91
2023/04/10 03:54:21;;;;;;;73.45;32.33;;;;;;;;;;6219281;23;20001;-93
2023/04/10 03:56:51;;;;;;;73.32;32.40;;;;;;;;;;6194212;23;20027;-92
2023/04/10 03:59:17;;;;;;;69.47;33.55;;;;;;;;;;6219001;23;20007;-92
2023/04/10 04:01:43;;;;;;;68.22;32.05;;;;;;;;;;6192066;23;20012;-92
2023/04/10 04:04:31;;;;;;;78.55;33.55;;;;;;;;;;6219560;23;20000;-91
2023/04/10 04:06:57;;;;;;;68.50;34.55;;;;;;;;;;6219914;23;20016;-91
2023/04/10 04:09:27;;;;;;;68.85;33.95;;;;;;;;;;6220928;23;20015;-91
2023/04/10 04:11:55;;;;;;;75.45;32.85;;;;;;;;;;6193020;23;20036;-90
2023/04/10 04:14:22;;;;;;;83.70;36.70;;;;;;;;;;6192240;23;20035;-91
2023/04/10 04:16:49;;;;;;;83.30;35.08;;;;;;;;;;6217450;23;20073;-91
2023/04/10 04:19:19;;;;;;;74.60;35.03;;;;;;;;;;6217200;22;20028;-90
2023/04/10 04:24:31;;;;;;;81.28;35.25;;;;;;;;;;6168886;23;20015;-90
2023/04/10 04:26:58;;;;;;;76.07;34.45;;;;;;;;;;6190186;23;20364;-89
2023/04/10 04:29:30;;;;;;;87.75;37.55;;;;;;;;;;6190313;23;20051;-90
2023/04/10 04:31:56;;;;;;;75.60;34.97;;;;;;;;;;6191833;23;20406;-90
2023/04/10 04:34:22;;;;;;;77.22;37.58;;;;;;;;;;6190990;23;20004;-89
2023/04/10 04:36:49;;;;;;;75.93;36.78;;;;;;;;;;6190677;23;20035;-90
2023/04/10 04:39:16;;;;;;;86.60;36.35;;;;;;;;;;6191425;23;20004;-91
2023/04/10 04:41:43;;;;;;;76.43;36.90;;;;;;;;;;6216558;23;20005;-91
2023/04/10 04:44:09;;;;;;;79.70;38.03;;;;;;;;;;6190309;23;20012;-91
2023/04/10 04:46:35;;;;;;;94.03;38.60;;;;;;;;;;6215200;23;20001;-91
2023/04/10 04:49:01;;;;;;;76.75;36.97;;;;;;;;;;6214868;23;20008;-91
2023/04/10 04:51:28;;;;;;;94.55;39.13;;;;;;;;;;6190873;23;20016;-92
2023/04/10 04:53:54;;;;;;;81.07;37.58;;;;;;;;;;6217985;23;20004;-91
2023/04/10 04:56:21;;;;;;;82.85;38.15;;;;;;;;;;6192282;23;20024;-92
2023/04/10 04:58:48;;;;;;;83.47;39.05;;;;;;;;;;6191081;23;20047;-92
2023/04/10 05:01:14;;;;;;;87.72;40.65;;;;;;;;;;6190691;23;20012;-92
2023/04/10 05:03:43;;;;;;;81.70;39.80;;;;;;;;;;6220098;23;20038;-91
2023/04/10 05:06:10;;;;;;;86.75;38.60;;;;;;;;;;6191400;23;20019;-91
2023/04/10 05:08:39;;;;;;;87.65;39.95;;;;;;;;;;6192872;23;20008;-92
2023/04/10 05:11:05;;;;;;;88.00;41.30;;;;;;;;;;6192956;23;20035;-91
2023/04/10 05:13:33;;;;;;;89.85;41.35;;;;;;;;;;6222040;23;20032;-92
2023/04/10 05:15:59;;;;;;;94.07;40.63;;;;;;;;;;6195408;23;20064;-90
2023/04/10 05:18:31;;;;;;;67.97;31.73;;;;;;;;;;6219621;23;20107;-89
2023/04/10 05:20:59;;;;;;;68.43;31.05;;;;;;;;;;6224497;22;20012;-91
2023/04/10 05:23:25;;;;;;;50.35;23.58;;;;;;;;;;6224194;23;20066;-92
2023/04/10 05:26:15;;;;;;;91.82;41.22;;;;;;;;;;6198103;23;20020;-90
2023/04/10 05:28:41;;;;;;;93.13;40.92;;;;;;;;;;6196440;23;20450;-92
2023/04/10 05:31:10;;;;;;;87.15;39.45;;;;;;;;;;6198432;23;20005;-92
2023/04/10 05:33:56;;;;;;;90.97;41.00;;;;;;;;;;6219914;23;20019;-91
2023/04/10 05:36:31;;;;;;;84.18;41.25;;;;;;;;;;6196896;23;20054;-91
2023/04/10 05:39:05;;;;;;;81.15;38.15;;;;;;;;;;6194689;23;20024;-90
2023/04/10 05:41:32;;;;;;;90.43;40.17;;;;;;;;;;6194338;23;20009;-90
2023/04/10 05:43:58;;;;;;;85.57;40.00;;;;;;;;;;6192926;23;20441;-90
2023/04/10 05:46:24;;;;;;;95.43;41.35;;;;;;;;;;6194023;23;20513;-90
2023/04/10 05:48:51;;;;;;;92.32;41.50;;;;;;;;;;6196478;23;20051;-90
2023/04/10 05:51:53;;;;;;;88.57;39.33;;;;;;;;;;6218651;23;20043;-91
2023/04/10 05:54:19;;;;;;;84.63;39.38;;;;;;;;;;6197194;23;20039;-91
2023/04/10 05:56:48;;;;;;;86.13;40.80;;;;;;;;;;6215994;23;20004;-90
2023/04/10 05:59:14;;;;;;;94.38;42.80;;;;;;;;;;6196659;23;20008;-87
2023/04/10 06:01:50;;;;;;;87.07;40.20;;;;;;;;;;6196023;23;20001;-90
2023/04/10 06:04:16;;;;;;;94.10;42.13;;;;;;;;;;6216941;23;20430;-93
2023/04/10 06:06:45;;;;;;;85.00;40.72;;;;;;;;;;6191857;23;20012;-92
2023/04/10 06:09:12;;;;;;;87.07;40.17;;;;;;;;;;6190614;23;20005;-91
2023/04/10 06:14:26;;;;;;;91.72;40.40;;;;;;;;;;6133849;23;20010;-90
2023/04/10 06:16:53;;;;;;;81.90;39.72;;;;;;;;;;6129687;23;20361;-90
2023/04/10 06:19:26;;;;;;;89.47;42.13;;;;;;;;;;6161934;22;20013;-90
2023/04/10 06:22:05;;;;;;;83.60;40.20;;;;;;;;;;6214687;22;20028;-91
2023/04/10 06:24:37;;;;;;;87.03;38.25;;;;;;;;;;6198121;23;20020;-91
2023/04/10 06:27:03;;;;;;;80.03;40.70;;;;;;;;;;6197658;23;20012;-92
2023/04/10 06:29:29;;;;;;;86.07;40.20;;;;;;;;;;6196474;23;20020;-91
2023/04/10 06:31:58;;;;;;;84.10;39.50;;;;;;;;;;6197476;23;20031;-92
2023/04/10 06:34:24;;;;;;;90.72;41.35;;;;;;;;;;6200081;23;20033;-91
2023/04/10 06:36:50;;;;;;;90.05;39.47;;;;;;;;;;6199110;23;20012;-92
2023/04/10 06:39:17;;;;;;;81.55;39.50;;;;;;;;;;6221962;23;20000;-90
2023/04/10 06:41:43;;;;;;;88.38;43.95;;;;;;;;;;6223002;23;20440;-91
2023/04/10 06:44:11;;;;;;;82.63;39.60;;;;;;;;;;6197396;23;20013;-91
2023/04/10 06:46:38;;;;;;;82.35;39.75;;;;;;;;;;6198408;23;20024;-92
2023/04/10 06:49:05;;;;;;;87.38;39.40;;;;;;;;;;6198015;23;20009;-91
2023/04/10 06:51:31;;;;;;;80.80;40.60;;;;;;;;;;6197394;23;20008;-91
2023/04/10 06:53:57;;;;;;;92.00;42.00;;;;;;;;;;6197479;23;20039;-90
2023/04/10 06:56:27;;;;;;;88.05;41.38;;;;;;;;;;6223087;23;20486;-90
2023/04/10 06:58:53;;;;;;;85.68;39.95;;;;;;;;;;6197839;23;20938;-91
2023/04/10 07:01:22;;;;;;;78.05;39.00;;;;;;;;;;6196861;23;20013;-92
2023/04/10 07:03:49;;;;;;;78.43;38.72;;;;;;;;;;6198433;23;20013;-91
2023/04/10 07:06:15;;;;;;;79.68;38.97;;;;;;;;;;6221935;23;20032;-92
2023/04/10 07:08:41;;;;;;;83.68;39.83;;;;;;;;;;6196611;23;20009;-92
2023/04/10 07:11:19;;;;;;;84.20;40.38;;;;;;;;;;6198111;23;20492;-91
2023/04/10 07:13:46;;;;;;;86.57;41.20;;;;;;;;;;6223337;23;20335;-92
2023/04/10 07:16:13;;;;;;;83.32;42.78;;;;;;;;;;6223970;23;20032;-92
2023/04/10 07:19:01;;;;;;;88.72;41.55;;;;;;;;;;6199154;23;20016;-92
2023/04/10 07:21:30;;;;;;;79.20;37.92;;;;;;;;;;6221696;22;20482;-93
2023/04/10 07:23:59;;;;;;;70.93;36.55;;;;;;;;;;6221991;23;20005;-93
2023/04/10 07:26:29;;;;;;;84.40;41.42;;;;;;;;;;6215047;23;20447;-93
2023/04/10 07:28:55;;;;;;;84.55;39.47;;;;;;;;;;6191592;23;20009;-94
2023/04/10 07:31:25;;;;;;;77.60;38.38;;;;;;;;;;6191157;23;20019;-94
2023/04/10 07:33:51;;;;;;;80.72;38.13;;;;;;;;;;6220083;23;20008;-93
2023/04/10 07:36:28;;;;;;;79.50;38.20;;;;;;;;;;6195689;23;20024;-93
2023/04/10 07:38:55;;;;;;;78.78;39.42;;;;;;;;;;6217696;23;20388;-93
2023/04/10 07:41:22;;;;;;;73.78;37.97;;;;;;;;;;6195863;23;20020;-92
2023/04/10 07:43:50;;;;;;;78.82;38.60;;;;;;;;;;6217609;23;20032;-91
2023/04/10 07:46:17;;;;;;;85.30;38.45;;;;;;;;;;6196970;23;20092;-93
2023/04/10 07:48:53;;;;;;;;;;;;;;;;;;;;;
2023/04/10 07:51:20;;;;;;;76.50;37.30;;;;;;;;;;6223911;23;20027;-93
2023/04/10 07:53:50;;;;;;;70.75;35.15;;;;;;;;;;6223185;23;20008;-92
2023/04/10 07:56:33;;;;;;;78.40;38.25;;;;;;;;;;6224161;23;20011;-92
2023/04/10 07:59:00;;;;;;;71.30;34.83;;;;;;;;;;6198955;23;20016;-92
2023/04/10 08:01:34;;;;;;;68.78;33.03;;;;;;;;;;6221939;23;20025;-93
2023/04/10 08:04:07;;;;;;;69.88;35.05;;;;;;;;;;6224743;23;20009;-91
2023/04/10 08:06:35;;;;;;;75.88;32.92;;;;;;;;;;6221204;23;20444;-93
2023/04/10 08:09:01;;;;;;;69.28;33.78;;;;;;;;;;6199090;23;20013;-92
2023/04/10 08:11:31;;;;;;;64.95;34.35;;;;;;;;;;6196505;23;20016;-91
2023/04/10 08:14:06;;;;;;;63.40;33.38;;;;;;;;;;6222540;23;20001;-92
2023/04/10 08:16:37;;;;;;;63.40;32.28;;;;;;;;;;6195994;23;20016;-91
2023/04/10 08:19:07;;;;;;;61.15;30.15;;;;;;;;;;6223702;23;20008;-93
2023/04/10 08:21:47;;;;;;;64.53;33.38;;;;;;;;;;6199931;23;20024;-92
2023/04/10 08:24:18;;;;;;;59.88;31.25;;;;;;;;;;6223480;23;20042;-93
2023/04/10 08:26:45;;;;;;;60.15;31.48;;;;;;;;;;6222834;23;20005;-92
2023/04/10 08:29:11;;;;;;;58.45;30.23;;;;;;;;;;6198577;23;20012;-94
2023/04/10 08:31:38;;;;;;;55.53;28.80;;;;;;;;;;6199912;23;20005;-92
2023/04/10 08:34:27;;;;;;;56.00;28.58;;;;;;;;;;6200638;23;20019;-93
2023/04/10 08:36:54;;;;;;;38.28;20.17;;;;;;;;;;6203819;23;20012;-91
2023/04/10 08:39:29;;;;;;;52.58;27.05;;;;;;;;;;6201916;23;20020;-92
2023/04/10 08:41:58;;;;;;;49.67;27.27;;;;;;;;;;6225885;23;20016;-92
2023/04/10 08:44:46;;;;;;;48.38;25.15;;;;;;;;;;6201417;23;20016;-92
2023/04/10 08:47:16;;;;;;;37.00;18.08;;;;;;;;;;6226272;23;20039;-94
2023/04/10 08:50:02;;;;;;;46.22;23.55;;;;;;;;;;6201200;23;20038;-93
2023/04/10 08:52:30;;;;;;;43.73;22.20;;;;;;;;;;6226288;23;20031;-93
2023/04/10 08:54:59;;;;;;;41.03;22.50;;;;;;;;;;6224999;23;20056;-94
2023/04/10 08:57:26;;;;;;;40.78;21.77;;;;;;;;;;6226888;23;20039;-92
2023/04/10 08:59:53;;;;;;;40.22;20.67;;;;;;;;;;6227277;23;20012;-95
2023/04/10 09:02:23;;;;;;;41.92;22.38;;;;;;;;;;6203622;23;20254;-95
2023/04/10 09:04:54;;;;;;;41.15;22.27;;;;;;;;;;6204792;23;20047;-94
2023/04/10 09:07:23;;;;;;;36.80;17.83;;;;;;;;;;6231014;23;20016;-94
2023/04/10 09:09:49;;;;;;;34.58;18.48;;;;;;;;;;6206625;23;20072;-92
2023/04/10 09:12:16;;;;;;;41.90;19.05;;;;;;;;;;6232037;23;20004;-91
2023/04/10 09:14:44;;;;;;;37.42;18.58;;;;;;;;;;6230016;23;20000;-93
2023/04/10 09:17:15;;;;;;;33.28;15.57;;;;;;;;;;6202679;23;20016;-93
2023/04/10 09:19:45;;;;;;;41.30;20.80;;;;;;;;;;6226964;23;20435;-93
2023/04/10 09:22:13;;;;;;;36.53;17.48;;;;;;;;;;6201742;23;20032;-94
2023/04/10 09:24:58;;;;;;;31.70;17.80;;;;;;;;;;6227394;23;20017;-93
2023/04/10 09:27:38;;;;;;;33.72;18.40;;;;;;;;;;6224599;23;20032;-92
2023/04/10 09:30:07;;;;;;;20.55;10.00;;;;;;;;;;6227081;23;20426;-92
2023/04/10 09:32:41;;;;;;;35.22;18.55;;;;;;;;;;6223517;23;20004;-93
2023/04/10 09:35:08;;;;;;;32.63;14.63;;;;;;;;;;6224369;23;20076;-92
2023/04/10 09:37:35;;;;;;;27.00;12.10;;;;;;;;;;6223346;23;20017;-92
2023/04/10 09:40:23;;;;;;;35.97;16.73;;;;;;;;;;6225440;23;20095;-93
2023/04/10 09:43:17;;;;;;;34.40;17.77;;;;;;;;;;6222529;23;20068;-94
2023/04/10 09:46:02;;;;;;;30.20;17.23;;;;;;;;;;6229083;23;20453;-95
2023/04/10 09:48:46;;;;;;;32.28;17.33;;;;;;;;;;6230961;23;20008;-93
2023/04/10 09:51:32;;;;;;;27.75;15.05;;;;;;;;;;6228346;23;20001;-94
2023/04/10 09:54:22;;;;;;;27.50;15.57;;;;;;;;;;6230649;23;20015;-94
2023/04/10 09:56:51;;;;;;;30.73;16.45;;;;;;;;;;6228867;23;20016;-94
2023/04/10 09:59:19;;;;;;;34.78;17.35;;;;;;;;;;6227477;23;19995;-93
2023/04/10 10:01:48;;;;;;;23.23;13.38;;;;;;;;;;6202464;23;20008;-92
2023/04/10 10:04:26;;;;;;;25.35;12.70;;;;;;;;;;6226700;23;20010;-93
2023/04/10 10:07:02;;;;;;;28.50;15.13;;;;;;;;;;6201632;23;20009;-92
2023/04/10 10:09:28;;;;;;;25.20;13.50;;;;;;;;;;6221840;23;20012;-95
2023/04/10 10:11:54;;;;;;;22.38;12.02;;;;;;;;;;6172056;23;20126;-95
2023/04/10 10:14:22;;;;;;;24.58;15.02;;;;;;;;;;6165418;23;20001;-94
2023/04/10 10:16:55;;;;;;;27.90;14.40;;;;;;;;;;6170845;23;20069;-96
2023/04/10 10:19:26;;;;;;;;;;;;;;;;;;6195765;23;20009;-95
2023/04/10 10:22:00;;;;;;;24.20;12.70;;;;;;;;;;6167671;23;19912;-95
2023/04/10 10:24:28;;;;;;;23.42;11.45;;;;;;;;;;6169382;23;20012;-95
2023/04/10 10:26:56;;;;;;;18.95;10.27;;;;;;;;;;6171293;23;20060;-95
2023/04/10 10:29:41;;;;;;;22.48;10.02;;;;;;;;;;6167926;23;20032;-95
2023/04/10 10:32:21;;;;;;;19.77;9.70;;;;;;;;;;6170210;23;20005;-96
2023/04/10 10:35:06;;;;;;;17.25;8.05;;;;;;;;;;6169542;23;20013;-96
2023/04/10 10:37:52;;;;;;;21.83;11.70;;;;;;;;;;6168864;23;20076;-96
2023/04/10 10:40:21;;;;;;;15.80;8.93;;;;;;;;;;6169154;23;20015;-94
2023/04/10 10:42:55;;;;;;;25.73;12.82;;;;;;;;;;6190396;23;20020;-95
2023/04/10 10:45:32;;;;;;;25.70;12.10;;;;;;;;;;6212093;23;20009;-95
2023/04/10 10:48:02;;;;;;;20.92;10.90;;;;;;;;;;6214918;23;20082;-94
2023/04/10 10:50:48;;;;;;;22.65;12.93;;;;;;;;;;6213490;23;20064;-95
2023/04/10 10:53:31;;;;;;;20.65;12.18;;;;;;;;;;6216330;23;20008;-94
2023/04/10 10:55:57;;;;;;;17.70;7.35;;;;;;;;;;6217983;23;20013;-95
2023/04/10 10:58:42;;;;;;;16.40;9.57;;;;;;;;;;6218336;23;20336;-95
2023/04/10 11:01:10;;;;;;;17.73;8.00;;;;;;;;;;6220808;23;20020;-95
2023/04/10 11:03:37;;;;;;;10.23;5.95;;;;;;;;;;6222211;23;20114;-95
2023/04/10 11:06:11;;;;;;;13.82;7.32;;;;;;;;;;6221352;23;20009;-96
2023/04/10 11:08:45;;;;;;;15.65;7.60;;;;;;;;;;6219511;23;20001;-94
2023/04/10 11:11:35;;;;;;;13.25;6.72;;;;;;;;;;6217210;23;20001;-93
2023/04/10 11:14:28;;;;;;;14.43;6.68;;;;;;;;;;6207343;23;20303;-96
2023/04/10 11:17:10;;;;;;;17.52;9.27;;;;;;;;;;6227966;23;20009;-95
2023/04/10 11:19:55;;;;;;;18.48;8.25;;;;;;;;;;6199632;23;20201;-95
2023/04/10 11:22:28;;;;;;;15.48;7.97;;;;;;;;;;6216650;22;20032;-96
2023/04/10 11:25:09;;;;;;;10.45;5.43;;;;;;;;;;6220738;23;20351;-94
2023/04/10 11:27:47;;;;;;;13.10;7.15;;;;;;;;;;6217060;23;20086;-95
2023/04/10 11:30:33;;;;;;;8.30;4.95;;;;;;;;;;6217390;23;20060;-93
2023/04/10 11:33:19;;;;;;;9.82;5.38;;;;;;;;;;6224210;23;20498;-93
2023/04/10 11:36:01;;;;;;;10.55;5.32;;;;;;;;;;6196892;23;20016;-94
2023/04/10 11:38:28;;;;;;;13.27;7.10;;;;;;;;;;6192401;23;20016;-94
2023/04/10 11:40:55;;;;;;;24.88;7.55;;;;;;;;;;6191116;23;20015;-94
2023/04/10 11:43:21;;;;;;;11.35;6.25;;;;;;;;;;6210553;23;20009;-93
2023/04/10 11:45:47;;;;;;;11.82;6.22;;;;;;;;;;6216008;23;20429;-94
2023/04/10 11:48:19;;;;;;;11.95;6.55;;;;;;;;;;6191498;23;20054;-93
2023/04/10 11:50:45;;;;;;;10.52;6.60;;;;;;;;;;6193818;23;20012;-94
2023/04/10 11:53:18;;;;;;;13.32;7.13;;;;;;;;;;6224531;23;20005;-95
2023/04/10 11:55:48;;;;;;;12.25;6.45;;;;;;;;;;6222923;23;20008;-95
2023/04/10 11:58:21;;;;;;;14.57;6.88;;;;;;;;;;6202331;23;20012;-95
2023/04/10 12:00:55;;;;;;;11.23;5.82;;;;;;;;;;6217912;23;20023;-95
2023/04/10 12:03:32;;;;;;;7.35;5.25;;;;;;;;;;6216943;23;20011;-94
2023/04/10 12:05:58;;;;;;;10.07;5.45;;;;;;;;;;6216375;23;20055;-94
2023/04/10 12:08:32;;;;;;;9.13;5.50;;;;;;;;;;6195352;23;20005;-96
2023/04/10 12:11:00;;;;;;;11.05;5.78;;;;;;;;;;6220504;23;20068;-94
2023/04/10 12:13:45;;;;;;;7.95;5.03;;;;;;;;;;6196593;23;20014;-94
2023/04/10 12:16:12;;;;;;;7.50;4.82;;;;;;;;;;6219416;23;20015;-94
2023/04/10 12:18:39;;;;;;;9.05;5.22;;;;;;;;;;6226840;23;20009;-95
2023/04/10 12:21:06;;;;;;;11.60;5.63;;;;;;;;;;6227043;22;20133;-96
2023/04/10 12:23:55;;;;;;;9.35;5.20;;;;;;;;;;6220668;23;20040;-96
2023/04/10 12:26:32;;;;;;;8.48;4.38;;;;;;;;;;6202721;23;20023;-95
2023/04/10 12:31:51;;;;;;;6.75;3.80;;;;;;;;;;6231841;23;20436;-96
2023/04/10 12:34:36;;;;;;;7.07;4.43;;;;;;;;;;6203656;23;20099;-95
2023/04/10 12:37:04;;;;;;;7.45;4.40;;;;;;;;;;6208254;23;20009;-95
2023/04/10 12:42:29;;;;;;;4.72;2.72;;;;;;;;;;6203937;23;20009;-96
2023/04/10 12:45:08;;;;;;;5.65;3.38;;;;;;;;;;6203185;23;20062;-96
2023/04/10 12:47:52;;;;;;;6.88;3.72;;;;;;;;;;6228160;23;20024;-96
2023/04/10 12:50:23;;;;;;;5.47;2.63;;;;;;;;;;6228492;23;20060;-96
2023/04/10 12:53:12;;;;;;;5.63;3.10;;;;;;;;;;6228636;23;20009;-96
2023/04/10 12:55:39;;;;;;;8.75;4.18;;;;;;;;;;6201988;23;20072;-96
2023/04/10 12:58:26;;;;;;;5.80;3.88;;;;;;;;;;6222541;23;20230;-96
2023/04/10 13:01:10;;;;;;;5.85;3.33;;;;;;;;;;6196710;23;20068;-95
2023/04/10 13:03:37;;;;;;;12.05;3.95;;;;;;;;;;6230469;23;20004;-95
2023/04/10 13:06:30;;;;;;;10.10;4.55;;;;;;;;;;6232627;23;20016;-96
2023/04/10 13:09:06;;;;;;;8.70;3.80;;;;;;;;;;6208698;23;20005;-96
2023/04/10 13:11:57;;;;;;;8.32;4.13;;;;;;;;;;6207759;23;19988;-96
2023/04/10 13:14:33;;;;;;;4.22;2.70;;;;;;;;;;6203100;23;20000;-96
2023/04/10 13:22:37;;;;;;;7.47;3.20;;;;;;;;;;6181391;23;20044;-96
2023/04/10 13:25:04;;;;;;;6.85;4.22;;;;;;;;;;6170171;23;20016;-96
2023/04/10 13:27:36;;;;;;;7.25;4.00;;;;;;;;;;6147967;23;20025;-96
2023/04/10 13:30:03;;;;;;;8.68;4.05;;;;;;;;;;6143090;23;20059;-96
2023/04/10 13:32:39;;;;;;;9.10;4.25;;;;;;;;;;6170057;23;20009;-96
2023/04/10 13:38:06;;;;;;;9.57;4.10;;;;;;;;;;6141660;23;20009;-96
2023/04/10 13:40:32;;;;;;;;;;;;;;;;;;6146318;23;20017;-96
2023/04/10 13:43:00;;;;;;;4.57;2.50;;;;;;;;;;6168617;23;19951;-96
2023/04/10 13:45:27;;;;;;;8.02;4.57;;;;;;;;;;6169607;23;20013;-96
2023/04/10 13:47:53;;;;;;;6.97;4.03;;;;;;;;;;6170159;23;20041;-95
2023/04/10 13:50:22;;;;;;;9.40;4.55;;;;;;;;;;6140485;23;20020;-96
2023/04/10 13:52:53;;;;;;;10.73;4.63;;;;;;;;;;6143526;23;20040;-96
2023/04/10 13:55:22;;;;;;;12.02;6.50;;;;;;;;;;6141798;23;20024;-95
2023/04/10 13:57:52;;;;;;;9.00;4.97;;;;;;;;;;6137323;23;20024;-96
2023/04/10 14:00:18;;;;;;;5.88;3.40;;;;;;;;;;6136331;23;20017;-93
2023/04/10 14:02:49;;;;;;;6.78;4.22;;;;;;;;;;6147207;23;20043;-96
2023/04/10 14:05:40;;;;;;;7.68;3.47;;;;;;;;;;6143385;23;20211;-96
2023/04/10 14:08:10;;;;;;;9.70;5.53;;;;;;;;;;6151259;23;20013;-96
2023/04/10 14:10:50;;;;;;;;;;;;;;;;;;;;;
2023/04/10 14:16:25;;;;;;;6.95;5.10;;;;;;;;;;6195137;22;20021;-92
2023/04/10 14:18:58;;;;;;;4.18;2.38;;;;;;;;;;6190347;23;20010;-93
2023/04/10 14:21:24;;;;;;;8.55;5.00;;;;;;;;;;6185247;23;20013;-92
2023/04/10 14:23:59;;;;;;;10.90;4.68;;;;;;;;;;6187599;23;20005;-94
2023/04/10 14:26:25;;;;;;;8.98;3.72;;;;;;;;;;6187812;23;20458;-95
2023/04/10 14:29:18;;;;;;;7.28;4.15;;;;;;;;;;6187610;23;20013;-95
2023/04/10 14:31:47;;;;;;;4.95;3.08;;;;;;;;;;6165036;23;20032;-95
2023/04/10 14:34:13;;;;;;;5.28;3.65;;;;;;;;;;6166367;23;20008;-94
2023/04/10 14:39:32;;;;;;;10.90;4.63;;;;;;;;;;6181774;23;20017;-94
2023/04/10 14:42:01;;;;;;;7.35;3.13;;;;;;;;;;6191650;23;20019;-93
2023/04/10 14:44:27;;;;;;;8.18;4.68;;;;;;;;;;6190211;23;20005;-93
2023/04/10 14:46:53;;;;;;;8.43;4.60;;;;;;;;;;6189577;23;20013;-95
2023/04/10 14:49:23;;;;;;;10.75;4.00;;;;;;;;;;6190670;23;19997;-94
2023/04/10 14:51:49;;;;;;;12.40;5.28;;;;;;;;;;6190279;23;20380;-95
2023/04/10 14:54:18;;;;;;;8.23;4.93;;;;;;;;;;6191467;23;20001;-94
2023/04/10 14:56:48;;;;;;;6.97;4.07;;;;;;;;;;6189897;23;20089;-95
2023/04/10 14:59:15;;;;;;;8.35;4.53;;;;;;;;;;6191450;23;20454;-95
2023/04/10 15:01:41;;;;;;;6.70;4.05;;;;;;;;;;6221521;23;20586;-96
2023/04/10 15:04:21;;;;;;;5.40;3.05;;;;;;;;;;6197253;23;20071;-94
2023/04/10 15:06:54;;;;;;;7.40;3.47;;;;;;;;;;6197425;23;20031;-95
2023/04/10 15:09:27;;;;;;;6.13;3.60;;;;;;;;;;6223764;23;20001;-96
2023/04/10 15:11:55;;;;;;;8.38;4.03;;;;;;;;;;6197760;23;20012;-94
2023/04/10 15:14:24;;;;;;;9.10;4.85;;;;;;;;;;6199266;23;20008;-95
2023/04/10 15:16:53;;;;;;;4.85;3.22;;;;;;;;;;6222202;22;20040;-94